sensor_id;sensor_type;location;lat;lon;timestamp;pressure;altitude;pressure_sealevel;temperature;humidity
42297;BME280;28985;47.456;19.016;2022-12-07T00:01:30;100331.63;;;-0.16;100.00
42297;BME280;28985;47.456;19.016;2022-12-07T00:03:59;100337.84;;;-0.17;100.00
42297;BME280;28985;47.456;19.016;2022-12-07T00:08:59;100330.63;;;-0.13;100.00
42297;BME280;28985;47.456;19.016;2022-12-07T00:11:26;100322.91;;;-0.18;100.00
42297;BME280;28985;47.456;19.016;2022-12-07T00:13:54;100323.16;;;-0.24;100.00
42297;BME280;28985;47.456;19.016;2022-12-07T00:16:24;100327.66;;;-0.26;100.00
42297;BME280;28985;47.456;19.016;2022-12-07T00:18:51;100316.44;;;-0.31;100.00
42297;BME280;28985;47.456;19.016;2022-12-07T00:21:26;100315.66;;;-0.33;100.00
42297;BME280;28985;47.456;19.016;2022-12-07T00:23:54;100321.06;;;-0.36;100.00
42297;BME280;28985;47.456;19.016;2022-12-07T00:26:22;100319.56;;;-0.42;100.00
42297;BME280;28985;47.456;19.016;2022-12-07T00:28:54;100315.22;;;-0.43;100.00
42297;BME280;28985;47.456;19.016;2022-12-07T00:31:23;100314.41;;;-0.45;100.00
42297;BME280;28985;47.456;19.016;2022-12-07T00:33:51;100303.81;;;-0.45;100.00
42297;BME280;28985;47.456;19.016;2022-12-07T00:36:20;100302.81;;;-0.43;100.00
42297;BME280;28985;47.456;19.016;2022-12-07T00:38:53;100303.69;;;-0.42;100.00
42297;BME280;28985;47.456;19.016;2022-12-07T00:41:22;100302.91;;;-0.44;100.00
42297;BME280;28985;47.456;19.016;2022-12-07T00:43:49;100301.97;;;-0.43;100.00
42297;BME280;28985;47.456;19.016;2022-12-07T00:46:17;100297.97;;;-0.33;100.00
42297;BME280;28985;47.456;19.016;2022-12-07T00:48:45;100298.72;;;-0.29;100.00
42297;BME280;28985;47.456;19.016;2022-12-07T00:51:13;100297.78;;;-0.28;100.00
42297;BME280;28985;47.456;19.016;2022-12-07T00:53:40;100300.44;;;-0.28;100.00
42297;BME280;28985;47.456;19.016;2022-12-07T00:56:14;100302.19;;;-0.29;100.00
42297;BME280;28985;47.456;19.016;2022-12-07T00:58:41;100302.16;;;-0.27;100.00
42297;BME280;28985;47.456;19.016;2022-12-07T01:01:10;100296.84;;;-0.27;100.00
42297;BME280;28985;47.456;19.016;2022-12-07T01:03:37;100301.44;;;-0.31;100.00
42297;BME280;28985;47.456;19.016;2022-12-07T01:06:05;100300.78;;;-0.36;100.00
42297;BME280;28985;47.456;19.016;2022-12-07T01:08:32;100303.53;;;-0.39;100.00
42297;BME280;28985;47.456;19.016;2022-12-07T01:11:03;100300.34;;;-0.46;100.00
42297;BME280;28985;47.456;19.016;2022-12-07T01:13:32;100293.44;;;-0.50;100.00
42297;BME280;28985;47.456;19.016;2022-12-07T01:16:02;100295.59;;;-0.58;100.00
42297;BME280;28985;47.456;19.016;2022-12-07T01:18:30;100296.59;;;-0.61;100.00
42297;BME280;28985;47.456;19.016;2022-12-07T01:21:02;100295.91;;;-0.66;100.00
42297;BME280;28985;47.456;19.016;2022-12-07T01:23:30;100305.13;;;-0.75;100.00
42297;BME280;28985;47.456;19.016;2022-12-07T01:25:57;100300.66;;;-0.74;100.00
42297;BME280;28985;47.456;19.016;2022-12-07T01:28:24;100305.19;;;-0.76;100.00
42297;BME280;28985;47.456;19.016;2022-12-07T01:31:18;100302.41;;;-0.73;100.00
42297;BME280;28985;47.456;19.016;2022-12-07T01:33:47;100293.88;;;-0.80;100.00
42297;BME280;28985;47.456;19.016;2022-12-07T01:36:20;100289.59;;;-0.83;100.00
42297;BME280;28985;47.456;19.016;2022-12-07T01:38:48;100278.22;;;-0.85;100.00
42297;BME280;28985;47.456;19.016;2022-12-07T01:41:18;100291.19;;;-0.78;100.00
42297;BME280;28985;47.456;19.016;2022-12-07T01:46:37;100295.53;;;-0.77;100.00
42297;BME280;28985;47.456;19.016;2022-12-07T01:49:10;100285.94;;;-0.80;100.00
42297;BME280;28985;47.456;19.016;2022-12-07T01:51:40;100287.59;;;-0.77;100.00
42297;BME280;28985;47.456;19.016;2022-12-07T01:54:09;100290.97;;;-0.74;100.00
42297;BME280;28985;47.456;19.016;2022-12-07T01:56:38;100282.97;;;-0.72;100.00
42297;BME280;28985;47.456;19.016;2022-12-07T01:59:06;100281.13;;;-0.70;100.00
42297;BME280;28985;47.456;19.016;2022-12-07T02:01:34;100281.84;;;-0.66;100.00
42297;BME280;28985;47.456;19.016;2022-12-07T02:04:01;100279.06;;;-0.63;100.00
42297;BME280;28985;47.456;19.016;2022-12-07T02:06:28;100274.56;;;-0.61;100.00
42297;BME280;28985;47.456;19.016;2022-12-07T02:08:55;100273.63;;;-0.60;100.00
42297;BME280;28985;47.456;19.016;2022-12-07T02:11:22;100272.34;;;-0.51;100.00
42297;BME280;28985;47.456;19.016;2022-12-07T02:13:49;100272.03;;;-0.44;100.00
42297;BME280;28985;47.456;19.016;2022-12-07T02:27:36;100268.59;;;-0.46;100.00
42297;BME280;28985;47.456;19.016;2022-12-07T02:30:31;100271.03;;;-0.41;100.00
42297;BME280;28985;47.456;19.016;2022-12-07T02:33:28;100271.75;;;-0.37;100.00
42297;BME280;28985;47.456;19.016;2022-12-07T02:36:02;100272.25;;;-0.29;100.00
42297;BME280;28985;47.456;19.016;2022-12-07T02:39:07;100270.97;;;-0.20;100.00
42297;BME280;28985;47.456;19.016;2022-12-07T02:41:37;100265.53;;;-0.17;100.00
42297;BME280;28985;47.456;19.016;2022-12-07T02:44:09;100265.19;;;-0.09;100.00
42297;BME280;28985;47.456;19.016;2022-12-07T02:46:44;100263.97;;;-0.02;100.00
42297;BME280;28985;47.456;19.016;2022-12-07T02:49:13;100265.53;;;0.02;100.00
42297;BME280;28985;47.456;19.016;2022-12-07T02:51:42;100267.03;;;0.08;100.00
42297;BME280;28985;47.456;19.016;2022-12-07T02:54:18;100258.94;;;0.11;100.00
42297;BME280;28985;47.456;19.016;2022-12-07T02:59:37;100257.00;;;0.15;100.00
42297;BME280;28985;47.456;19.016;2022-12-07T03:08:05;100249.53;;;0.23;100.00
42297;BME280;28985;47.456;19.016;2022-12-07T03:18:33;100243.25;;;0.25;100.00
42297;BME280;28985;47.456;19.016;2022-12-07T03:21:06;100251.00;;;0.30;100.00
42297;BME280;28985;47.456;19.016;2022-12-07T03:23:36;100237.56;;;0.33;100.00
42297;BME280;28985;47.456;19.016;2022-12-07T03:26:04;100249.75;;;0.37;100.00
42297;BME280;28985;47.456;19.016;2022-12-07T03:28:40;100245.09;;;0.43;100.00
42297;BME280;28985;47.456;19.016;2022-12-07T03:31:19;100246.44;;;0.51;100.00
42297;BME280;28985;47.456;19.016;2022-12-07T03:36:49;100237.69;;;0.67;100.00
42297;BME280;28985;47.456;19.016;2022-12-07T03:42:05;100234.41;;;0.79;100.00
42297;BME280;28985;47.456;19.016;2022-12-07T03:44:33;100240.34;;;0.85;100.00
42297;BME280;28985;47.456;19.016;2022-12-07T03:47:14;100243.53;;;0.91;100.00
42297;BME280;28985;47.456;19.016;2022-12-07T03:49:58;100239.72;;;0.97;100.00
42297;BME280;28985;47.456;19.016;2022-12-07T03:52:36;100242.13;;;1.02;100.00
42297;BME280;28985;47.456;19.016;2022-12-07T03:57:32;100254.06;;;1.11;100.00
42297;BME280;28985;47.456;19.016;2022-12-07T03:59:59;100252.03;;;1.16;100.00
42297;BME280;28985;47.456;19.016;2022-12-07T04:02:27;100255.38;;;1.19;100.00
42297;BME280;28985;47.456;19.016;2022-12-07T04:04:56;100250.84;;;1.22;100.00
42297;BME280;28985;47.456;19.016;2022-12-07T04:07:22;100254.44;;;1.20;100.00
42297;BME280;28985;47.456;19.016;2022-12-07T04:09:49;100250.06;;;1.19;100.00
42297;BME280;28985;47.456;19.016;2022-12-07T04:12:16;100254.44;;;1.20;100.00
42297;BME280;28985;47.456;19.016;2022-12-07T04:14:42;100248.97;;;1.24;100.00
42297;BME280;28985;47.456;19.016;2022-12-07T04:17:09;100253.09;;;1.29;100.00
42297;BME280;28985;47.456;19.016;2022-12-07T04:19:35;100255.44;;;1.36;100.00
42297;BME280;28985;47.456;19.016;2022-12-07T04:22:03;100260.56;;;1.39;100.00
42297;BME280;28985;47.456;19.016;2022-12-07T04:24:31;100266.66;;;1.41;100.00
42297;BME280;28985;47.456;19.016;2022-12-07T04:26:57;100270.88;;;1.45;100.00
42297;BME280;28985;47.456;19.016;2022-12-07T04:29:24;100267.09;;;1.49;100.00
42297;BME280;28985;47.456;19.016;2022-12-07T04:31:52;100264.03;;;1.57;100.00
42297;BME280;28985;47.456;19.016;2022-12-07T04:34:19;100258.31;;;1.65;100.00
42297;BME280;28985;47.456;19.016;2022-12-07T04:36:46;100262.69;;;1.66;100.00
42297;BME280;28985;47.456;19.016;2022-12-07T04:39:20;100257.22;;;1.69;100.00
42297;BME280;28985;47.456;19.016;2022-12-07T04:41:47;100243.84;;;1.70;100.00
42297;BME280;28985;47.456;19.016;2022-12-07T04:44:15;100252.69;;;1.71;100.00
42297;BME280;28985;47.456;19.016;2022-12-07T04:46:42;100240.16;;;1.73;100.00
42297;BME280;28985;47.456;19.016;2022-12-07T04:49:09;100255.06;;;1.76;100.00
42297;BME280;28985;47.456;19.016;2022-12-07T04:51:36;100267.50;;;1.75;100.00
42297;BME280;28985;47.456;19.016;2022-12-07T04:54:03;100272.69;;;1.77;100.00
42297;BME280;28985;47.456;19.016;2022-12-07T04:56:30;100270.03;;;1.77;100.00
42297;BME280;28985;47.456;19.016;2022-12-07T04:58:57;100255.88;;;1.78;100.00
42297;BME280;28985;47.456;19.016;2022-12-07T05:01:24;100268.00;;;1.82;100.00
42297;BME280;28985;47.456;19.016;2022-12-07T05:03:51;100261.06;;;1.79;100.00
42297;BME280;28985;47.456;19.016;2022-12-07T05:06:17;100265.53;;;1.79;100.00
42297;BME280;28985;47.456;19.016;2022-12-07T05:08:44;100270.72;;;1.80;100.00
42297;BME280;28985;47.456;19.016;2022-12-07T05:11:11;100259.19;;;1.81;100.00
42297;BME280;28985;47.456;19.016;2022-12-07T05:13:58;100261.75;;;1.83;100.00
42297;BME280;28985;47.456;19.016;2022-12-07T05:16:25;100267.94;;;1.83;100.00
42297;BME280;28985;47.456;19.016;2022-12-07T05:18:51;100252.94;;;1.82;100.00
42297;BME280;28985;47.456;19.016;2022-12-07T05:21:18;100252.75;;;1.85;100.00
42297;BME280;28985;47.456;19.016;2022-12-07T05:23:45;100260.91;;;1.82;100.00
42297;BME280;28985;47.456;19.016;2022-12-07T05:26:11;100259.28;;;1.80;100.00
42297;BME280;28985;47.456;19.016;2022-12-07T05:28:38;100274.34;;;1.79;100.00
42297;BME280;28985;47.456;19.016;2022-12-07T05:31:04;100272.47;;;1.81;100.00
42297;BME280;28985;47.456;19.016;2022-12-07T05:33:31;100250.09;;;1.85;100.00
42297;BME280;28985;47.456;19.016;2022-12-07T05:35:58;100249.19;;;1.86;100.00
42297;BME280;28985;47.456;19.016;2022-12-07T05:38:24;100248.06;;;1.91;100.00
42297;BME280;28985;47.456;19.016;2022-12-07T05:40:51;100247.22;;;1.90;100.00
42297;BME280;28985;47.456;19.016;2022-12-07T05:43:17;100239.16;;;1.92;100.00
42297;BME280;28985;47.456;19.016;2022-12-07T05:45:44;100241.81;;;1.92;100.00
42297;BME280;28985;47.456;19.016;2022-12-07T05:48:11;100248.13;;;1.89;100.00
42297;BME280;28985;47.456;19.016;2022-12-07T05:50:37;100242.69;;;1.92;100.00
42297;BME280;28985;47.456;19.016;2022-12-07T05:53:04;100239.94;;;1.94;100.00
42297;BME280;28985;47.456;19.016;2022-12-07T05:55:30;100247.91;;;1.94;100.00
42297;BME280;28985;47.456;19.016;2022-12-07T05:57:57;100249.69;;;1.93;100.00
42297;BME280;28985;47.456;19.016;2022-12-07T06:00:49;100244.31;;;1.95;100.00
42297;BME280;28985;47.456;19.016;2022-12-07T06:03:16;100248.66;;;1.96;100.00
42297;BME280;28985;47.456;19.016;2022-12-07T06:05:43;100245.06;;;1.97;100.00
42297;BME280;28985;47.456;19.016;2022-12-07T06:08:10;100247.63;;;1.98;100.00
42297;BME280;28985;47.456;19.016;2022-12-07T06:10:37;100244.03;;;1.99;100.00
42297;BME280;28985;47.456;19.016;2022-12-07T06:13:03;100244.63;;;2.05;100.00
42297;BME280;28985;47.456;19.016;2022-12-07T06:15:30;100244.47;;;2.08;100.00
42297;BME280;28985;47.456;19.016;2022-12-07T06:17:57;100245.25;;;2.10;100.00
42297;BME280;28985;47.456;19.016;2022-12-07T06:20:23;100251.50;;;2.09;100.00
42297;BME280;28985;47.456;19.016;2022-12-07T06:22:50;100240.00;;;2.08;100.00
42297;BME280;28985;47.456;19.016;2022-12-07T06:25:16;100241.03;;;2.06;100.00
42297;BME280;28985;47.456;19.016;2022-12-07T06:27:43;100249.94;;;2.05;100.00
42297;BME280;28985;47.456;19.016;2022-12-07T06:30:10;100247.38;;;2.03;100.00
42297;BME280;28985;47.456;19.016;2022-12-07T06:32:37;100250.03;;;2.03;100.00
42297;BME280;28985;47.456;19.016;2022-12-07T06:35:04;100251.84;;;2.03;100.00
42297;BME280;28985;47.456;19.016;2022-12-07T06:37:31;100257.84;;;2.06;100.00
42297;BME280;28985;47.456;19.016;2022-12-07T06:39:59;100252.19;;;2.12;100.00
42297;BME280;28985;47.456;19.016;2022-12-07T06:42:26;100255.59;;;2.14;100.00
42297;BME280;28985;47.456;19.016;2022-12-07T06:44:53;100260.06;;;2.14;100.00
42297;BME280;28985;47.456;19.016;2022-12-07T06:47:19;100261.84;;;2.13;100.00
42297;BME280;28985;47.456;19.016;2022-12-07T06:50:06;100262.81;;;2.12;100.00
42297;BME280;28985;47.456;19.016;2022-12-07T06:52:34;100265.38;;;2.14;100.00
42297;BME280;28985;47.456;19.016;2022-12-07T06:55:00;100260.22;;;2.11;100.00
42297;BME280;28985;47.456;19.016;2022-12-07T06:57:27;100261.94;;;2.12;100.00
42297;BME280;28985;47.456;19.016;2022-12-07T06:59:53;100271.66;;;2.13;100.00
42297;BME280;28985;47.456;19.016;2022-12-07T07:02:20;100268.81;;;2.16;100.00
42297;BME280;28985;47.456;19.016;2022-12-07T07:04:46;100270.34;;;2.20;100.00
42297;BME280;28985;47.456;19.016;2022-12-07T07:07:13;100269.13;;;2.26;100.00
42297;BME280;28985;47.456;19.016;2022-12-07T07:09:39;100269.22;;;2.24;100.00
42297;BME280;28985;47.456;19.016;2022-12-07T07:12:07;100270.34;;;2.20;100.00
42297;BME280;28985;47.456;19.016;2022-12-07T07:14:34;100269.31;;;2.23;100.00
42297;BME280;28985;47.456;19.016;2022-12-07T07:17:00;100268.28;;;2.25;100.00
42297;BME280;28985;47.456;19.016;2022-12-07T07:19:27;100272.31;;;2.33;100.00
42297;BME280;28985;47.456;19.016;2022-12-07T07:21:54;100264.06;;;2.37;100.00
42297;BME280;28985;47.456;19.016;2022-12-07T07:24:20;100265.63;;;2.41;100.00
42297;BME280;28985;47.456;19.016;2022-12-07T07:26:47;100269.72;;;2.47;100.00
42297;BME280;28985;47.456;19.016;2022-12-07T07:29:13;100271.44;;;2.48;100.00
42297;BME280;28985;47.456;19.016;2022-12-07T07:31:40;100278.34;;;2.51;100.00
42297;BME280;28985;47.456;19.016;2022-12-07T07:34:06;100275.63;;;2.52;100.00
42297;BME280;28985;47.456;19.016;2022-12-07T07:36:33;100274.59;;;2.55;100.00
42297;BME280;28985;47.456;19.016;2022-12-07T07:38:59;100267.41;;;2.57;100.00
42297;BME280;28985;47.456;19.016;2022-12-07T07:41:26;100273.28;;;2.62;100.00
42297;BME280;28985;47.456;19.016;2022-12-07T07:43:53;100273.03;;;2.67;100.00
42297;BME280;28985;47.456;19.016;2022-12-07T07:46:19;100270.97;;;2.72;100.00
42297;BME280;28985;47.456;19.016;2022-12-07T07:48:46;100268.13;;;2.75;100.00
42297;BME280;28985;47.456;19.016;2022-12-07T07:51:12;100265.09;;;2.81;100.00
42297;BME280;28985;47.456;19.016;2022-12-07T07:53:39;100274.63;;;2.86;100.00
42297;BME280;28985;47.456;19.016;2022-12-07T07:56:05;100270.13;;;2.86;100.00
42297;BME280;28985;47.456;19.016;2022-12-07T07:58:32;100275.38;;;2.88;100.00
42297;BME280;28985;47.456;19.016;2022-12-07T08:01:08;100272.63;;;2.89;100.00
42297;BME280;28985;47.456;19.016;2022-12-07T08:03:35;100280.16;;;2.97;100.00
42297;BME280;28985;47.456;19.016;2022-12-07T08:06:03;100275.59;;;2.99;100.00
42297;BME280;28985;47.456;19.016;2022-12-07T08:08:29;100274.28;;;3.06;100.00
42297;BME280;28985;47.456;19.016;2022-12-07T08:10:56;100281.50;;;3.04;100.00
42297;BME280;28985;47.456;19.016;2022-12-07T08:13:22;100278.91;;;3.03;100.00
42297;BME280;28985;47.456;19.016;2022-12-07T08:15:56;100280.09;;;3.13;100.00
42297;BME280;28985;47.456;19.016;2022-12-07T08:18:23;100284.53;;;3.13;100.00
42297;BME280;28985;47.456;19.016;2022-12-07T08:20:49;100282.75;;;3.13;100.00
42297;BME280;28985;47.456;19.016;2022-12-07T08:23:16;100282.47;;;3.18;100.00
42297;BME280;28985;47.456;19.016;2022-12-07T08:25:43;100281.19;;;3.25;100.00
42297;BME280;28985;47.456;19.016;2022-12-07T08:28:09;100281.84;;;3.29;100.00
42297;BME280;28985;47.456;19.016;2022-12-07T08:30:36;100290.03;;;3.40;100.00
42297;BME280;28985;47.456;19.016;2022-12-07T08:33:03;100288.22;;;3.41;100.00
42297;BME280;28985;47.456;19.016;2022-12-07T08:35:33;100289.81;;;3.43;100.00
42297;BME280;28985;47.456;19.016;2022-12-07T08:38:00;100288.25;;;3.55;100.00
42297;BME280;28985;47.456;19.016;2022-12-07T08:40:28;100289.84;;;3.58;100.00
42297;BME280;28985;47.456;19.016;2022-12-07T08:42:55;100290.22;;;3.66;100.00
42297;BME280;28985;47.456;19.016;2022-12-07T08:45:22;100292.41;;;3.74;100.00
42297;BME280;28985;47.456;19.016;2022-12-07T08:47:57;100290.22;;;3.81;100.00
42297;BME280;28985;47.456;19.016;2022-12-07T08:50:28;100289.06;;;3.85;100.00
42297;BME280;28985;47.456;19.016;2022-12-07T08:52:57;100285.06;;;3.92;100.00
42297;BME280;28985;47.456;19.016;2022-12-07T08:55:24;100286.78;;;4.08;100.00
42297;BME280;28985;47.456;19.016;2022-12-07T08:57:52;100287.63;;;4.08;100.00
42297;BME280;28985;47.456;19.016;2022-12-07T09:00:18;100291.00;;;4.25;100.00
42297;BME280;28985;47.456;19.016;2022-12-07T09:02:45;100290.72;;;4.29;100.00
42297;BME280;28985;47.456;19.016;2022-12-07T09:05:12;100289.28;;;4.38;100.00
42297;BME280;28985;47.456;19.016;2022-12-07T09:07:47;100289.53;;;4.48;100.00
42297;BME280;28985;47.456;19.016;2022-12-07T09:10:15;100275.38;;;4.61;100.00
42297;BME280;28985;47.456;19.016;2022-12-07T09:12:42;100281.59;;;4.74;100.00
42297;BME280;28985;47.456;19.016;2022-12-07T09:15:08;100276.53;;;4.97;100.00
42297;BME280;28985;47.456;19.016;2022-12-07T09:17:35;100282.44;;;5.02;100.00
42297;BME280;28985;47.456;19.016;2022-12-07T09:20:04;100273.13;;;5.08;98.59
42297;BME280;28985;47.456;19.016;2022-12-07T09:22:31;100277.66;;;5.20;97.76
42297;BME280;28985;47.456;19.016;2022-12-07T09:24:59;100268.69;;;5.34;97.32
42297;BME280;28985;47.456;19.016;2022-12-07T09:27:26;100274.78;;;5.36;92.60
42297;BME280;28985;47.456;19.016;2022-12-07T09:29:53;100267.53;;;5.51;93.27
42297;BME280;28985;47.456;19.016;2022-12-07T09:32:19;100266.06;;;5.85;92.59
42297;BME280;28985;47.456;19.016;2022-12-07T09:34:47;100257.88;;;6.25;93.17
42297;BME280;28985;47.456;19.016;2022-12-07T09:37:13;100259.78;;;6.36;84.39
42297;BME280;28985;47.456;19.016;2022-12-07T09:39:40;100256.50;;;6.33;80.69
42297;BME280;28985;47.456;19.016;2022-12-07T09:42:28;100255.28;;;6.61;86.00
42297;BME280;28985;47.456;19.016;2022-12-07T09:44:56;100255.59;;;6.81;81.81
42297;BME280;28985;47.456;19.016;2022-12-07T09:47:23;100248.84;;;6.99;79.29
42297;BME280;28985;47.456;19.016;2022-12-07T09:49:49;100251.25;;;7.27;79.89
42297;BME280;28985;47.456;19.016;2022-12-07T09:52:24;100249.75;;;7.23;74.79
42297;BME280;28985;47.456;19.016;2022-12-07T09:54:52;100252.03;;;7.16;76.33
42297;BME280;28985;47.456;19.016;2022-12-07T09:57:25;100248.66;;;7.14;77.03
42297;BME280;28985;47.456;19.016;2022-12-07T09:59:55;100249.38;;;7.16;76.10
42297;BME280;28985;47.456;19.016;2022-12-07T10:02:46;100240.97;;;7.21;76.57
42297;BME280;28985;47.456;19.016;2022-12-07T10:05:30;100239.06;;;7.23;75.53
42297;BME280;28985;47.456;19.016;2022-12-07T10:07:58;100242.34;;;7.27;74.85
42297;BME280;28985;47.456;19.016;2022-12-07T10:10:34;100239.25;;;7.08;73.73
42297;BME280;28985;47.456;19.016;2022-12-07T10:13:34;100243.91;;;7.18;74.73
42297;BME280;28985;47.456;19.016;2022-12-07T10:16:03;100240.34;;;7.17;73.74
42297;BME280;28985;47.456;19.016;2022-12-07T10:23:39;100238.41;;;6.72;75.48
42297;BME280;28985;47.456;19.016;2022-12-07T10:28:58;100238.66;;;6.69;76.01
42297;BME280;28985;47.456;19.016;2022-12-07T10:31:26;100228.97;;;6.91;77.45
42297;BME280;28985;47.456;19.016;2022-12-07T10:33:58;100225.44;;;6.79;74.03
42297;BME280;28985;47.456;19.016;2022-12-07T10:36:36;100228.97;;;6.91;75.70
42297;BME280;28985;47.456;19.016;2022-12-07T10:39:11;100222.81;;;6.90;74.62
42297;BME280;28985;47.456;19.016;2022-12-07T10:42:00;100215.25;;;6.84;73.40
42297;BME280;28985;47.456;19.016;2022-12-07T10:44:29;100217.81;;;6.97;74.30
42297;BME280;28985;47.456;19.016;2022-12-07T11:01:25;100227.88;;;6.82;71.43
42297;BME280;28985;47.456;19.016;2022-12-07T11:07:14;100219.25;;;6.90;71.50
42297;BME280;28985;47.456;19.016;2022-12-07T11:15:26;100215.19;;;7.20;68.89
42297;BME280;28985;47.456;19.016;2022-12-07T11:18:12;100209.78;;;6.97;68.46
42297;BME280;28985;47.456;19.016;2022-12-07T11:20:59;100212.09;;;6.90;68.62
42297;BME280;28985;47.456;19.016;2022-12-07T11:26:08;100200.31;;;6.93;68.91
42297;BME280;28985;47.456;19.016;2022-12-07T11:28:59;100205.06;;;7.12;68.47
42297;BME280;28985;47.456;19.016;2022-12-07T11:37:25;100210.56;;;7.22;68.04
42297;BME280;28985;47.456;19.016;2022-12-07T11:40:05;100201.31;;;7.26;66.44
42297;BME280;28985;47.456;19.016;2022-12-07T11:42:42;100201.56;;;7.69;66.91
42297;BME280;28985;47.456;19.016;2022-12-07T11:45:22;100191.31;;;8.29;64.95
42297;BME280;28985;47.456;19.016;2022-12-07T11:47:58;100194.81;;;8.95;65.25
42297;BME280;28985;47.456;19.016;2022-12-07T11:51:02;100193.13;;;9.88;66.38
42297;BME280;28985;47.456;19.016;2022-12-07T11:53:54;100197.88;;;10.74;58.94
42297;BME280;28985;47.456;19.016;2022-12-07T11:56:26;100204.28;;;10.64;54.29
42297;BME280;28985;47.456;19.016;2022-12-07T11:59:17;100203.00;;;10.48;54.17
42297;BME280;28985;47.456;19.016;2022-12-07T12:04:39;100189.13;;;10.43;55.74
42297;BME280;28985;47.456;19.016;2022-12-07T12:07:16;100191.22;;;10.88;52.78
42297;BME280;28985;47.456;19.016;2022-12-07T12:10:35;100186.84;;;10.48;54.18
42297;BME280;28985;47.456;19.016;2022-12-07T12:13:16;100175.50;;;10.54;53.25
42297;BME280;28985;47.456;19.016;2022-12-07T12:22:09;100157.53;;;11.78;49.08
42297;BME280;28985;47.456;19.016;2022-12-07T12:24:38;100151.31;;;11.50;48.96
42297;BME280;28985;47.456;19.016;2022-12-07T12:27:15;100158.28;;;11.05;49.81
42297;BME280;28985;47.456;19.016;2022-12-07T12:29:44;100147.72;;;10.54;50.50
42297;BME280;28985;47.456;19.016;2022-12-07T12:32:17;100149.56;;;10.24;51.56
42297;BME280;28985;47.456;19.016;2022-12-07T12:38:31;100158.56;;;9.32;53.61
42297;BME280;28985;47.456;19.016;2022-12-07T12:41:00;100152.13;;;8.92;55.06
42297;BME280;28985;47.456;19.016;2022-12-07T12:43:50;100153.44;;;8.55;55.45
42297;BME280;28985;47.456;19.016;2022-12-07T12:54:25;100147.69;;;9.12;56.46
42297;BME280;28985;47.456;19.016;2022-12-07T12:59:32;100154.44;;;9.28;56.99
42297;BME280;28985;47.456;19.016;2022-12-07T13:02:26;100155.00;;;9.32;56.02
42297;BME280;28985;47.456;19.016;2022-12-07T13:05:03;100155.59;;;9.04;57.01
42297;BME280;28985;47.456;19.016;2022-12-07T13:13:31;100160.78;;;8.09;57.77
42297;BME280;28985;47.456;19.016;2022-12-07T13:18:35;100167.34;;;7.72;59.68
42297;BME280;28985;47.456;19.016;2022-12-07T13:26:39;100171.13;;;7.35;61.67
42297;BME280;28985;47.456;19.016;2022-12-07T13:31:51;100168.22;;;7.04;61.73
42297;BME280;28985;47.456;19.016;2022-12-07T13:37:02;100175.94;;;6.84;62.51
42297;BME280;28985;47.456;19.016;2022-12-07T13:39:35;100172.19;;;6.87;62.10
42297;BME280;28985;47.456;19.016;2022-12-07T13:42:26;100177.38;;;6.77;62.04
42297;BME280;28985;47.456;19.016;2022-12-07T13:44:53;100172.72;;;6.56;61.52
42297;BME280;28985;47.456;19.016;2022-12-07T13:47:43;100179.16;;;6.54;61.79
42297;BME280;28985;47.456;19.016;2022-12-07T13:50:26;100176.59;;;6.52;62.25
42297;BME280;28985;47.456;19.016;2022-12-07T13:53:00;100184.00;;;6.49;62.79
42297;BME280;28985;47.456;19.016;2022-12-07T13:55:29;100186.28;;;6.42;62.56
42297;BME280;28985;47.456;19.016;2022-12-07T13:57:55;100186.72;;;6.36;63.48
42297;BME280;28985;47.456;19.016;2022-12-07T14:00:24;100188.72;;;6.21;63.84
42297;BME280;28985;47.456;19.016;2022-12-07T14:05:39;100188.00;;;6.18;64.87
42297;BME280;28985;47.456;19.016;2022-12-07T14:10:57;100183.63;;;6.17;64.72
42297;BME280;28985;47.456;19.016;2022-12-07T14:13:31;100182.66;;;6.18;63.92
42297;BME280;28985;47.456;19.016;2022-12-07T14:16:04;100191.19;;;6.24;64.64
42297;BME280;28985;47.456;19.016;2022-12-07T14:18:39;100184.72;;;6.15;65.16
42297;BME280;28985;47.456;19.016;2022-12-07T14:23:37;100192.41;;;5.94;66.67
42297;BME280;28985;47.456;19.016;2022-12-07T14:26:13;100195.06;;;5.82;67.17
42297;BME280;28985;47.456;19.016;2022-12-07T14:28:41;100195.69;;;5.73;67.88
42297;BME280;28985;47.456;19.016;2022-12-07T14:31:20;100189.94;;;5.66;67.87
42297;BME280;28985;47.456;19.016;2022-12-07T14:33:59;100198.28;;;5.61;68.03
42297;BME280;28985;47.456;19.016;2022-12-07T14:36:25;100181.41;;;5.61;68.17
42297;BME280;28985;47.456;19.016;2022-12-07T14:38:52;100190.72;;;5.55;68.45
42297;BME280;28985;47.456;19.016;2022-12-07T14:41:22;100200.97;;;5.48;69.17
42297;BME280;28985;47.456;19.016;2022-12-07T14:44:11;100201.84;;;5.36;69.44
42297;BME280;28985;47.456;19.016;2022-12-07T14:46:57;100206.66;;;5.31;69.69
42297;BME280;28985;47.456;19.016;2022-12-07T14:49:44;100208.38;;;5.19;72.53
42297;BME280;28985;47.456;19.016;2022-12-07T14:52:23;100207.72;;;5.02;72.81
42297;BME280;28985;47.456;19.016;2022-12-07T14:55:30;100207.81;;;5.01;72.38
42297;BME280;28985;47.456;19.016;2022-12-07T14:57:58;100209.00;;;4.96;72.40
42297;BME280;28985;47.456;19.016;2022-12-07T15:00:27;100210.06;;;4.81;74.23
42297;BME280;28985;47.456;19.016;2022-12-07T15:02:54;100215.59;;;4.78;73.85
42297;BME280;28985;47.456;19.016;2022-12-07T15:05:21;100216.63;;;4.75;72.65
42297;BME280;28985;47.456;19.016;2022-12-07T15:07:49;100215.41;;;4.94;69.40
42297;BME280;28985;47.456;19.016;2022-12-07T15:10:19;100221.34;;;4.72;72.15
42297;BME280;28985;47.456;19.016;2022-12-07T15:12:50;100220.88;;;4.52;72.94